createdAt,value
2022-12-07T00:01:53.529Z,100496.38
2022-12-07T00:04:21.689Z,100499.03
2022-12-07T00:06:53.918Z,100485.84
2022-12-07T00:09:24.381Z,100485.84
2022-12-07T00:11:53.917Z,100486.75
2022-12-07T00:14:22.400Z,100486.75
2022-12-07T00:16:51.629Z,100483.22
2022-12-07T00:19:23.481Z,100481.47
2022-12-07T00:21:51.631Z,100477.06
2022-12-07T00:24:19.653Z,100483.22
2022-12-07T00:26:47.794Z,100489.38
2022-12-07T00:29:20.204Z,100482.34
2022-12-07T00:31:53.429Z,100483.25
2022-12-07T00:34:24.375Z,100479.75
2022-12-07T00:36:52.728Z,100466.56
2022-12-07T00:42:23.795Z,100467.47
2022-12-07T00:44:52.095Z,100462.19
2022-12-07T00:47:22.196Z,100463.97
2022-12-07T00:49:52.617Z,100468.34
2022-12-07T00:52:20.635Z,100465.69
2022-12-07T00:54:48.628Z,100468.34
2022-12-07T00:57:16.747Z,100458.69
2022-12-07T00:59:46.118Z,100460.44
2022-12-07T01:02:14.041Z,100424.41
2022-12-07T01:04:42.096Z,100444.66
2022-12-07T01:07:12.242Z,100423.56
2022-12-07T01:09:40.221Z,100442.88
2022-12-07T01:12:08.516Z,100450.78
2022-12-07T01:14:36.879Z,100447.28
2022-12-07T01:17:08.887Z,100447.28
2022-12-07T01:19:36.973Z,100455.19
2022-12-07T01:22:07.131Z,100448.16
2022-12-07T01:24:35.225Z,100442.88
2022-12-07T01:27:03.200Z,100457.81
2022-12-07T01:29:31.173Z,100453.41
2022-12-07T01:31:59.228Z,100456.03
2022-12-07T01:34:31.018Z,100454.25
2022-12-07T01:36:59.149Z,100451.63
2022-12-07T01:39:30.478Z,100452.53
2022-12-07T01:41:58.656Z,100445.53
2022-12-07T01:44:28.256Z,100450.78
2022-12-07T01:46:59.467Z,100450.81
2022-12-07T01:49:33.877Z,100457.81
2022-12-07T01:55:12.076Z,100454.31
2022-12-07T01:57:43.828Z,100449.09
2022-12-07T02:00:13.509Z,100442.06
2022-12-07T02:02:48.789Z,100440.31
2022-12-07T02:05:18.949Z,100439.41
2022-12-07T02:07:49.837Z,100435.03
2022-12-07T02:10:19.597Z,100440.25
2022-12-07T02:12:51.254Z,100437.56
2022-12-07T02:15:20.494Z,100448.06
2022-12-07T02:17:55.532Z,100450.59
2022-12-07T02:20:32.419Z,100451.44
2022-12-07T02:23:31.800Z,100452.28
2022-12-07T02:26:24.081Z,100447.88
2022-12-07T02:29:12.861Z,100438.25
2022-12-07T02:31:46.773Z,100442.63
2022-12-07T02:34:22.759Z,100435.63
2022-12-07T02:36:56.266Z,100428.59
2022-12-07T02:39:31.736Z,100434.75
2022-12-07T02:42:03.768Z,100429.50
2022-12-07T02:44:35.086Z,100423.38
2022-12-07T02:47:06.876Z,100415.53
2022-12-07T02:49:36.524Z,100420.81
2022-12-07T02:52:06.860Z,100403.28
2022-12-07T02:54:35.090Z,100407.72
2022-12-07T02:57:18.691Z,100412.13
2022-12-07T02:59:59.392Z,100417.38
2022-12-07T03:02:38.677Z,100414.78
2022-12-07T03:05:21.445Z,100411.28
2022-12-07T03:07:57.857Z,100410.41
2022-12-07T03:10:33.574Z,100402.53
2022-12-07T03:13:07.986Z,100402.53
2022-12-07T03:15:44.081Z,100403.41
2022-12-07T03:18:20.392Z,100402.53
2022-12-07T03:20:50.454Z,100405.16
2022-12-07T03:23:23.131Z,100399.91
2022-12-07T03:26:00.848Z,100395.53
2022-12-07T03:28:34.941Z,100396.41
2022-12-07T03:31:15.439Z,100391.16
2022-12-07T03:33:52.031Z,100386.75
2022-12-07T03:36:26.047Z,100386.75
2022-12-07T03:39:04.302Z,100388.50
2022-12-07T03:41:38.639Z,100381.50
2022-12-07T03:44:10.600Z,100388.53
2022-12-07T03:46:46.569Z,100387.63
2022-12-07T03:49:25.772Z,100385.88
2022-12-07T03:52:03.944Z,100390.28
2022-12-07T03:54:38.473Z,100376.25
2022-12-07T03:57:07.836Z,100387.66
2022-12-07T03:59:39.728Z,100386.78
2022-12-07T04:02:10.374Z,100380.63
2022-12-07T04:04:38.547Z,100375.38
2022-12-07T04:07:06.742Z,100384.13
2022-12-07T04:09:37.276Z,100388.53
2022-12-07T04:12:05.575Z,100398.19
2022-12-07T04:14:33.761Z,100395.56
2022-12-07T04:17:01.958Z,100386.78
2022-12-07T04:19:33.241Z,100389.41
2022-12-07T04:22:03.003Z,100382.41
2022-12-07T04:24:31.283Z,100381.50
2022-12-07T04:27:02.148Z,100381.53
2022-12-07T04:29:30.344Z,100379.78
2022-12-07T04:31:58.426Z,100378.00
2022-12-07T04:34:26.845Z,100387.66
2022-12-07T04:36:58.554Z,100371.84
2022-12-07T04:39:28.821Z,100375.38
2022-12-07T04:41:57.611Z,100384.16
2022-12-07T04:44:27.117Z,100376.25
2022-12-07T04:46:56.219Z,100382.44
2022-12-07T04:49:25.411Z,100383.28
2022-12-07T04:51:53.683Z,100385.03
2022-12-07T04:54:23.609Z,100382.41
2022-12-07T04:56:51.691Z,100375.41
2022-12-07T04:59:21.191Z,100344.66
2022-12-07T05:01:49.351Z,100378.91
2022-12-07T05:04:18.820Z,100374.50
2022-12-07T05:06:49.122Z,100377.16
2022-12-07T05:09:17.359Z,100366.59
2022-12-07T05:11:46.697Z,100368.34
2022-12-07T05:14:17.428Z,100374.53
2022-12-07T05:16:48.496Z,100378.91
2022-12-07T05:19:16.824Z,100371.00
2022-12-07T05:21:44.923Z,100378.91
2022-12-07T05:24:15.426Z,100366.63
2022-12-07T05:26:44.151Z,100381.53
2022-12-07T05:29:15.492Z,100381.53
2022-12-07T05:31:44.141Z,100378.03
2022-12-07T05:34:14.660Z,100372.75
2022-12-07T05:36:42.859Z,100381.53
2022-12-07T05:39:13.383Z,100375.38
2022-12-07T05:43:24.176Z,100375.38
2022-12-07T05:45:52.524Z,100371.88
2022-12-07T05:48:23.056Z,100379.75
2022-12-07T05:50:51.933Z,100377.13
2022-12-07T05:53:23.422Z,100381.50
2022-12-07T05:55:51.699Z,100374.50
2022-12-07T05:58:37.206Z,100371.88
2022-12-07T06:01:06.898Z,100370.13
2022-12-07T06:03:37.433Z,100371.84
2022-12-07T06:06:05.941Z,100376.28
2022-12-07T06:08:34.179Z,100380.66
2022-12-07T06:11:21.866Z,100367.47
2022-12-07T06:13:50.090Z,100369.22
2022-12-07T06:16:19.547Z,100378.00
2022-12-07T06:18:47.622Z,100379.75
2022-12-07T06:21:18.273Z,100378.03
2022-12-07T06:23:46.252Z,100378.88
2022-12-07T06:26:14.185Z,100375.38
2022-12-07T06:28:42.844Z,100375.38
2022-12-07T06:31:14.027Z,100383.28
2022-12-07T06:33:44.482Z,100379.78
2022-12-07T06:36:12.855Z,100380.66
2022-12-07T06:38:41.149Z,100385.03
2022-12-07T06:41:09.638Z,100382.41
2022-12-07T06:43:40.053Z,100381.53
2022-12-07T06:46:11.317Z,100383.28
2022-12-07T06:48:44.094Z,100385.03
2022-12-07T06:51:12.650Z,100377.16
2022-12-07T06:53:40.746Z,100380.66
2022-12-07T06:56:09.308Z,100384.16
2022-12-07T06:58:37.386Z,100384.16
2022-12-07T07:01:11.615Z,100394.69
2022-12-07T07:03:39.845Z,100392.06
2022-12-07T07:06:13.229Z,100390.31
2022-12-07T07:08:41.990Z,100371.88
2022-12-07T07:11:11.027Z,100393.84
2022-12-07T07:13:42.003Z,100391.22
2022-12-07T07:16:10.317Z,100398.22
2022-12-07T07:18:41.467Z,100394.72
2022-12-07T07:21:09.439Z,100401.75
2022-12-07T07:23:41.480Z,100409.66
2022-12-07T07:26:09.464Z,100400.84
2022-12-07T07:28:37.641Z,100399.09
2022-12-07T07:31:08.067Z,100400.00
2022-12-07T07:33:38.311Z,100395.63
2022-12-07T07:36:07.624Z,100400.00
2022-12-07T07:38:35.574Z,100404.41
2022-12-07T07:41:04.952Z,100408.78
2022-12-07T07:43:35.859Z,100411.41
2022-12-07T07:46:03.964Z,100412.31
2022-12-07T07:48:32.016Z,100408.78
2022-12-07T07:51:00.182Z,100420.19
2022-12-07T07:53:28.383Z,100412.31
2022-12-07T07:55:57.250Z,100415.81
2022-12-07T07:58:26.908Z,100426.34
2022-12-07T08:00:59.254Z,100416.66
2022-12-07T08:03:29.752Z,100424.59
2022-12-07T08:05:58.057Z,100417.53
2022-12-07T08:08:26.045Z,100424.56
2022-12-07T08:10:54.314Z,100423.69
2022-12-07T08:13:27.552Z,100421.03
2022-12-07T08:16:00.705Z,100429.81
2022-12-07T08:18:28.769Z,100414.84
2022-12-07T08:21:01.473Z,100420.13
2022-12-07T08:23:34.860Z,100424.50
2022-12-07T08:26:11.314Z,100431.50
2022-12-07T08:28:40.239Z,100425.34
2022-12-07T08:31:14.062Z,100428.00
2022-12-07T08:33:46.438Z,100428.88
2022-12-07T08:36:15.379Z,100428.88
2022-12-07T08:39:01.470Z,100424.44
2022-12-07T08:41:32.335Z,100428.84
2022-12-07T08:44:02.751Z,100420.03
2022-12-07T08:46:38.889Z,100427.06
2022-12-07T08:49:14.376Z,100420.84
2022-12-07T08:51:42.815Z,100427.84
2022-12-07T08:54:14.577Z,100421.63
2022-12-07T08:56:43.191Z,100427.75
2022-12-07T08:59:12.697Z,100418.03
2022-12-07T09:01:44.493Z,100417.94
2022-12-07T09:04:12.796Z,100423.09
2022-12-07T09:06:41.364Z,100420.47
2022-12-07T09:09:11.426Z,100427.38
2022-12-07T09:11:40.269Z,100422.94
2022-12-07T09:14:10.408Z,100425.56
2022-12-07T09:16:40.744Z,100429.94
2022-12-07T09:19:12.434Z,100421.13
2022-12-07T09:21:40.697Z,100422.84
2022-12-07T09:24:10.902Z,100429.97
2022-12-07T09:26:40.306Z,100432.53
2022-12-07T09:29:10.789Z,100429.03
2022-12-07T09:31:39.790Z,100430.75
2022-12-07T09:34:10.304Z,100434.28
2022-12-07T09:36:43.842Z,100427.13
2022-12-07T09:39:12.228Z,100425.28
2022-12-07T09:41:42.459Z,100426.16
2022-12-07T09:44:14.993Z,100431.31
2022-12-07T09:46:45.759Z,100424.16
2022-12-07T09:49:16.811Z,100422.34
2022-12-07T09:51:46.979Z,100424.16
2022-12-07T09:54:16.724Z,100426.78
2022-12-07T09:56:45.945Z,100422.19
2022-12-07T09:59:20.392Z,100422.94
2022-12-07T10:01:50.888Z,100427.09
2022-12-07T10:04:22.239Z,100419.00
2022-12-07T10:06:55.030Z,100417.03
2022-12-07T10:09:26.000Z,100413.84
2022-12-07T10:12:06.851Z,100412.69
2022-12-07T10:15:06.363Z,100410.59
2022-12-07T10:17:35.799Z,100406.06
2022-12-07T10:20:20.089Z,100390.44
2022-12-07T10:23:07.525Z,100401.28
2022-12-07T10:25:40.763Z,100403.66
2022-12-07T10:28:16.356Z,100400.31
2022-12-07T10:30:53.781Z,100397.34
2022-12-07T10:33:37.177Z,100393.94
2022-12-07T10:36:22.606Z,100394.16
2022-12-07T10:38:54.991Z,100395.69
2022-12-07T10:44:27.518Z,100393.44
2022-12-07T10:47:11.799Z,100394.47
2022-12-07T10:50:04.249Z,100399.88
2022-12-07T10:52:58.404Z,100396.44
2022-12-07T10:55:35.273Z,100384.25
2022-12-07T10:58:25.539Z,100387.94
2022-12-07T11:01:07.578Z,100391.78
2022-12-07T11:03:48.554Z,100378.63
2022-12-07T11:06:29.230Z,100374.06
2022-12-07T11:09:08.948Z,100370.44
2022-12-07T11:11:40.655Z,100370.19
2022-12-07T11:14:22.249Z,100367.66
2022-12-07T11:17:00.890Z,100361.97
2022-12-07T11:19:52.149Z,100362.88
2022-12-07T11:22:32.645Z,100355.91
2022-12-07T11:25:11.447Z,100361.78
2022-12-07T11:27:50.221Z,100353.81
2022-12-07T11:30:23.908Z,100354.91
2022-12-07T11:33:06.818Z,100344.34
2022-12-07T11:35:46.118Z,100341.19
2022-12-07T11:38:19.003Z,100336.25
2022-12-07T11:40:51.675Z,100341.47
2022-12-07T11:43:28.180Z,100343.56
2022-12-07T11:46:02.069Z,100336.94
2022-12-07T11:48:36.375Z,100331.00
2022-12-07T11:51:05.942Z,100336.38
2022-12-07T11:53:37.879Z,100333.06
2022-12-07T11:56:13.602Z,100331.81
2022-12-07T11:58:51.610Z,100326.94
2022-12-07T12:01:42.905Z,100325.41
2022-12-07T12:04:29.024Z,100314.34
2022-12-07T12:06:57.744Z,100328.44
2022-12-07T12:15:28.789Z,100318.25
2022-12-07T12:18:20.570Z,100318.13
2022-12-07T12:20:54.321Z,100317.16
2022-12-07T12:23:25.000Z,100316.31
2022-12-07T12:25:56.478Z,100310.91
2022-12-07T12:28:31.899Z,100309.16
2022-12-07T12:31:14.052Z,100298.72
2022-12-07T12:33:46.655Z,100301.34
2022-12-07T12:36:46.188Z,100296.97
2022-12-07T12:39:16.068Z,100300.44
2022-12-07T12:42:08.351Z,100296.03
2022-12-07T12:45:21.489Z,100293.38
2022-12-07T12:48:00.048Z,100294.13
2022-12-07T12:50:32.357Z,100279.13
2022-12-07T12:53:26.431Z,100280.94
2022-12-07T12:56:12.699Z,100285.25
2022-12-07T12:58:44.936Z,100279.66
2022-12-07T13:01:44.435Z,100275.19
2022-12-07T13:04:52.851Z,100277.84
2022-12-07T13:08:08.088Z,100268.06
2022-12-07T13:10:41.978Z,100262.22
2022-12-07T13:13:33.776Z,100254.13
2022-12-07T13:16:50.314Z,100258.59
2022-12-07T13:19:48.943Z,100248.25
2022-12-07T13:22:51.589Z,100242.16
2022-12-07T13:25:47.002Z,100242.53
2022-12-07T13:28:18.630Z,100240.09
2022-12-07T13:31:02.163Z,100243.66
2022-12-07T13:33:37.348Z,100241.00
2022-12-07T13:36:06.340Z,100249.16
2022-12-07T13:38:38.465Z,100246.59
2022-12-07T13:41:15.931Z,100237.81
2022-12-07T13:43:50.025Z,100239.50
2022-12-07T13:46:21.693Z,100243.94
2022-12-07T13:48:51.899Z,100240.47
2022-12-07T13:51:25.967Z,100241.22
2022-12-07T13:54:04.255Z,100240.88
2022-12-07T13:56:38.180Z,100239.00
2022-12-07T14:02:04.908Z,100240.47
2022-12-07T14:04:40.350Z,100234.25
2022-12-07T14:11:32.699Z,100230.63
2022-12-07T14:14:04.066Z,100230.69
2022-12-07T14:16:34.404Z,100239.47
2022-12-07T14:19:05.127Z,100222.94
2022-12-07T14:21:36.793Z,100247.50
2022-12-07T14:24:11.752Z,100239.59
2022-12-07T14:26:41.216Z,100241.63
2022-12-07T14:29:24.952Z,100237.09
2022-12-07T14:31:54.132Z,100237.94
2022-12-07T14:34:25.476Z,100245.88
2022-12-07T14:36:53.676Z,100250.47
2022-12-07T14:39:22.336Z,100240.06
2022-12-07T14:41:53.599Z,100239.22
2022-12-07T14:44:29.452Z,100232.19
2022-12-07T14:49:52.878Z,100228.06
2022-12-07T14:55:17.845Z,100229.91
2022-12-07T14:57:48.307Z,100227.31
2022-12-07T15:00:22.252Z,100220.38
2022-12-07T15:02:51.323Z,100223.84
2022-12-07T15:05:20.386Z,100219.56
2022-12-07T15:07:50.062Z,100223.19
2022-12-07T15:10:23.884Z,100222.38
2022-12-07T15:12:52.878Z,100218.94
2022-12-07T15:15:22.258Z,100229.56
2022-12-07T15:17:50.430Z,100218.19
2022-12-07T15:20:18.791Z,100213.84
2022-12-07T15:22:46.877Z,100209.53
2022-12-07T15:25:15.830Z,100212.19
2022-12-07T15:27:43.976Z,100217.56
2022-12-07T15:30:19.882Z,100215.84
2022-12-07T15:33:00.255Z,100216.81
2022-12-07T15:35:28.252Z,100207.19
2022-12-07T15:37:56.465Z,100207.28
2022-12-07T15:40:24.588Z,100203.84
2022-12-07T15:45:25.510Z,100203.16
2022-12-07T15:48:26.894Z,100199.69
2022-12-07T15:50:43.714Z,100201.47
2022-12-07T15:53:12.040Z,100204.16
2022-12-07T15:55:42.535Z,100198.03
2022-12-07T15:58:10.859Z,100193.66
2022-12-07T16:00:40.423Z,100197.22
2022-12-07T16:03:08.482Z,100197.25
2022-12-07T16:05:36.755Z,100189.34
2022-12-07T16:08:05.000Z,100185.00
2022-12-07T16:10:33.111Z,100184.09
2022-12-07T16:13:01.238Z,100185.88
2022-12-07T16:15:29.176Z,100187.66
2022-12-07T16:17:58.541Z,100190.31
2022-12-07T16:20:26.673Z,100191.22
2022-12-07T16:22:55.463Z,100193.03
2022-12-07T16:25:25.920Z,100186.88
2022-12-07T16:27:54.693Z,100186.88
2022-12-07T16:30:22.825Z,100185.13
2022-12-07T16:32:51.377Z,100190.44
2022-12-07T16:35:20.980Z,100183.38
2022-12-07T16:37:51.170Z,100186.94
2022-12-07T16:40:21.498Z,100187.84
2022-12-07T16:42:53.011Z,100185.16
2022-12-07T16:45:21.333Z,100181.69
2022-12-07T16:47:49.410Z,100179.94
2022-12-07T16:50:17.392Z,100177.28
2022-12-07T16:52:49.107Z,100180.81
2022-12-07T16:55:17.293Z,100182.59
2022-12-07T16:57:45.516Z,100179.97
2022-12-07T17:00:15.690Z,100179.97
2022-12-07T17:02:46.186Z,100180.88
2022-12-07T17:05:14.412Z,100181.78
2022-12-07T17:07:45.404Z,100174.75
2022-12-07T17:10:18.157Z,100184.44
2022-12-07T17:12:49.230Z,100179.19
2022-12-07T17:15:21.658Z,100173.06
2022-12-07T17:17:55.366Z,100179.22
2022-12-07T17:20:28.904Z,100167.81
2022-12-07T17:22:59.533Z,100181.00
2022-12-07T17:25:29.052Z,100176.63
2022-12-07T17:28:02.414Z,100171.38
2022-12-07T17:30:34.443Z,100172.25
2022-12-07T17:33:04.592Z,100163.47
2022-12-07T17:35:34.806Z,100168.78
2022-12-07T17:38:05.016Z,100170.56
2022-12-07T17:40:34.397Z,100170.53
2022-12-07T17:43:02.398Z,100161.75
2022-12-07T17:45:32.954Z,100160.03
2022-12-07T17:48:03.683Z,100160.03
2022-12-07T17:50:49.020Z,100162.69
2022-12-07T17:53:17.097Z,100157.41
2022-12-07T17:56:27.034Z,100152.19
2022-12-07T17:58:44.977Z,100156.59
2022-12-07T18:01:16.579Z,100159.25
2022-12-07T18:03:47.385Z,100154.91
2022-12-07T18:06:15.480Z,100155.81
2022-12-07T18:08:43.447Z,100152.34
2022-12-07T18:11:13.115Z,100154.13
2022-12-07T18:13:43.695Z,100153.25
2022-12-07T18:16:17.381Z,100148.88
2022-12-07T18:18:52.082Z,100148.84
2022-12-07T18:21:24.652Z,100146.22
2022-12-07T18:23:57.461Z,100145.31
2022-12-07T18:26:27.881Z,100142.66
2022-12-07T18:28:56.270Z,100133.00
2022-12-07T18:31:24.460Z,100134.75
2022-12-07T18:33:56.341Z,100137.38
2022-12-07T18:36:25.274Z,100136.50
2022-12-07T18:38:53.577Z,100126.84
2022-12-07T18:41:21.878Z,100133.88
2022-12-07T18:43:54.179Z,100135.63
2022-12-07T18:46:26.810Z,100128.59
2022-12-07T18:48:57.235Z,100134.75
2022-12-07T18:51:32.476Z,100142.69
2022-12-07T18:54:05.129Z,100134.75
2022-12-07T18:56:34.822Z,100131.25
2022-12-07T18:59:23.379Z,100130.38
2022-12-07T19:01:53.431Z,100131.25
2022-12-07T19:04:24.134Z,100122.53
2022-12-07T19:06:52.490Z,100109.34
2022-12-07T19:09:28.353Z,100112.88
2022-12-07T19:11:57.203Z,100117.25
2022-12-07T19:14:28.495Z,100125.13
2022-12-07T19:16:58.587Z,100113.72
2022-12-07T19:19:32.907Z,100108.44
2022-12-07T19:22:01.439Z,100126.88
2022-12-07T19:24:29.705Z,100126.88
2022-12-07T19:27:00.587Z,100124.28
2022-12-07T19:29:32.813Z,100123.41
2022-12-07T19:32:01.752Z,100127.78
2022-12-07T19:34:32.684Z,100121.66
2022-12-07T19:37:00.783Z,100124.28
2022-12-07T19:39:29.850Z,100119.91
2022-12-07T19:42:00.669Z,100126.06
2022-12-07T19:44:30.006Z,100109.41
2022-12-07T19:47:05.034Z,100117.31
2022-12-07T19:49:35.529Z,100112.03
2022-12-07T19:52:05.341Z,100112.91
2022-12-07T19:54:36.923Z,100120.81
2022-12-07T19:57:05.822Z,100118.16
2022-12-07T19:59:34.768Z,100117.31
2022-12-07T20:02:04.541Z,100123.44
2022-12-07T20:04:35.663Z,100112.94
2022-12-07T20:07:04.006Z,100101.50
2022-12-07T20:09:34.232Z,100106.78
2022-12-07T20:12:20.981Z,100083.97
2022-12-07T20:14:49.360Z,100091.84
2022-12-07T20:17:21.349Z,100088.34
2022-12-07T20:19:49.510Z,100090.97
2022-12-07T20:22:17.517Z,100083.06
2022-12-07T20:24:45.677Z,100084.81
2022-12-07T20:27:13.945Z,100087.41
2022-12-07T20:29:41.850Z,100087.44
2022-12-07T20:32:12.859Z,100068.13
2022-12-07T20:34:43.578Z,100088.28
2022-12-07T20:37:13.798Z,100089.16
2022-12-07T20:39:44.811Z,100089.16
2022-12-07T20:42:30.037Z,100097.09
2022-12-07T20:46:24.879Z,100086.59
2022-12-07T20:48:55.642Z,100084.84
2022-12-07T20:51:23.700Z,100091.00
2022-12-07T20:53:51.819Z,100083.09
2022-12-07T20:56:21.573Z,100081.34
2022-12-07T20:58:54.763Z,100081.34
2022-12-07T21:01:24.204Z,100083.09
2022-12-07T21:03:56.135Z,100079.56
2022-12-07T21:06:26.611Z,100093.63
2022-12-07T21:08:58.693Z,100076.06
2022-12-07T21:11:28.921Z,100071.66
2022-12-07T21:13:56.862Z,100076.06
2022-12-07T21:16:28.043Z,100062.88
2022-12-07T21:18:56.954Z,100062.84
2022-12-07T21:21:30.827Z,100057.59
2022-12-07T21:24:02.342Z,100057.56
2022-12-07T21:26:33.808Z,100065.47
2022-12-07T21:29:08.493Z,100054.94
2022-12-07T21:31:40.258Z,100061.09
2022-12-07T21:34:10.769Z,100050.53
2022-12-07T21:36:38.846Z,100047.03
2022-12-07T21:39:06.975Z,100039.97
2022-12-07T21:41:35.945Z,100036.47
2022-12-07T21:44:07.835Z,100033.81
2022-12-07T21:46:36.029Z,100033.81
2022-12-07T21:49:08.071Z,100040.81
2022-12-07T21:51:36.622Z,100026.81
2022-12-07T21:54:06.201Z,100053.09
2022-12-07T21:56:35.976Z,100039.97
2022-12-07T21:59:08.711Z,100039.97
2022-12-07T22:01:40.406Z,100042.66
2022-12-07T22:04:17.104Z,100041.78
2022-12-07T22:06:48.252Z,100026.88
2022-12-07T22:09:18.870Z,100042.66
2022-12-07T22:11:47.411Z,100040.00
2022-12-07T22:14:33.459Z,100040.88
2022-12-07T22:17:04.305Z,100036.47
2022-12-07T22:19:36.315Z,100026.84
2022-12-07T22:22:04.355Z,100032.97
2022-12-07T22:24:33.881Z,100034.69
2022-12-07T22:27:02.221Z,100023.28
2022-12-07T22:29:32.640Z,100029.44
2022-12-07T22:32:09.274Z,100025.06
2022-12-07T22:34:48.318Z,100027.69
2022-12-07T22:37:16.379Z,100033.84
2022-12-07T22:39:44.489Z,100025.94
2022-12-07T22:42:12.671Z,100021.53
2022-12-07T22:44:43.016Z,100023.25
2022-12-07T22:47:10.946Z,100015.34
2022-12-07T22:49:39.106Z,100007.41
2022-12-07T22:52:08.494Z,100015.31
2022-12-07T22:54:39.123Z,100003.03
2022-12-07T22:57:07.102Z,100005.66
2022-12-07T22:59:36.338Z,100002.16
2022-12-07T23:02:04.528Z,100003.06
2022-12-07T23:04:35.571Z,99988.16
2022-12-07T23:07:06.444Z,99991.66
2022-12-07T23:09:35.798Z,99989.00
2022-12-07T23:12:21.254Z,99991.66
2022-12-07T23:14:49.351Z,99984.63
2022-12-07T23:17:17.275Z,99986.38
2022-12-07T23:19:45.456Z,99982.88
2022-12-07T23:22:13.520Z,99974.97
2022-12-07T23:24:42.997Z,99967.97
2022-12-07T23:27:11.110Z,99979.41
2022-12-07T23:29:39.131Z,99973.25
2022-12-07T23:32:07.236Z,99974.13
2022-12-07T23:34:37.835Z,99977.66
2022-12-07T23:37:06.023Z,99967.13
2022-12-07T23:39:37.088Z,99966.22
2022-12-07T23:42:06.691Z,99970.56
2022-12-07T23:44:34.721Z,99967.94
2022-12-07T23:47:02.782Z,99970.63
2022-12-07T23:49:36.022Z,99967.09
2022-12-07T23:52:04.084Z,99957.50
2022-12-07T23:54:32.395Z,99957.50
2022-12-07T23:57:00.436Z,99954.00
2022-12-07T23:59:33.223Z,99955.78
